Terminal Aerodrome Forecast
Issued by NWS Topeka, KS

Home | Current Version | Previous Version | Graphics & Text | Print | Product List | Glossary On
Versions: 1 2 3 4 5 6 7 8 9 10 11 12 13 14 15 16
748
FTUS43 KTOP 032323
TAFTOP
TAF
KTOP 032323Z 0400/0424 26006KT P6SM FEW080
     FM040800 30010KT P6SM SKC
     FM041300 35011G19KT P6SM SKC=

USA.gov is the U.S. government's official web portal to all federal, state and local government web resources and services.